sensor_id;sensor_type;location;lat;lon;timestamp;pressure;altitude;pressure_sealevel;temperature;humidity
29935;BME280;19905;53.370;-6.314;2022-09-24T00:00:14;101667.69;;;9.67;100.00
29935;BME280;19905;53.370;-6.314;2022-09-24T00:02:42;101669.69;;;9.62;100.00
29935;BME280;19905;53.370;-6.314;2022-09-24T00:05:11;101673.28;;;9.61;100.00
29935;BME280;19905;53.370;-6.314;2022-09-24T00:07:41;101666.69;;;9.54;100.00
29935;BME280;19905;53.370;-6.314;2022-09-24T00:10:11;101669.63;;;9.48;100.00
29935;BME280;19905;53.370;-6.314;2022-09-24T00:12:41;101665.91;;;9.52;100.00
29935;BME280;19905;53.370;-6.314;2022-09-24T00:15:10;101675.66;;;9.65;100.00
29935;BME280;19905;53.370;-6.314;2022-09-24T00:17:40;101664.19;;;9.51;100.00
29935;BME280;19905;53.370;-6.314;2022-09-24T00:20:09;101659.94;;;9.48;100.00
29935;BME280;19905;53.370;-6.314;2022-09-24T00:22:40;101658.66;;;9.55;100.00
29935;BME280;19905;53.370;-6.314;2022-09-24T00:25:09;101660.63;;;9.52;100.00
29935;BME280;19905;53.370;-6.314;2022-09-24T00:27:56;101661.25;;;9.41;100.00
29935;BME280;19905;53.370;-6.314;2022-09-24T00:30:31;101661.75;;;9.32;100.00
29935;BME280;19905;53.370;-6.314;2022-09-24T00:33:00;101660.81;;;9.33;100.00
29935;BME280;19905;53.370;-6.314;2022-09-24T00:35:30;101663.28;;;9.36;100.00
29935;BME280;19905;53.370;-6.314;2022-09-24T00:38:00;101672.63;;;9.41;100.00
29935;BME280;19905;53.370;-6.314;2022-09-24T00:40:30;101673.22;;;9.47;100.00
29935;BME280;19905;53.370;-6.314;2022-09-24T00:43:00;101675.75;;;9.48;100.00
29935;BME280;19905;53.370;-6.314;2022-09-24T00:45:30;101671.44;;;9.47;100.00
29935;BME280;19905;53.370;-6.314;2022-09-24T00:47:58;101667.94;;;9.47;100.00
29935;BME280;19905;53.370;-6.314;2022-09-24T00:50:30;101666.09;;;9.49;100.00
29935;BME280;19905;53.370;-6.314;2022-09-24T00:53:03;101665.31;;;9.47;100.00
29935;BME280;19905;53.370;-6.314;2022-09-24T00:55:37;101667.25;;;9.43;100.00
29935;BME280;19905;53.370;-6.314;2022-09-24T00:58:08;101668.72;;;9.33;100.00
29935;BME280;19905;53.370;-6.314;2022-09-24T01:00:38;101669.91;;;9.27;100.00
29935;BME280;19905;53.370;-6.314;2022-09-24T01:03:11;101674.50;;;9.24;100.00
29935;BME280;19905;53.370;-6.314;2022-09-24T01:05:41;101671.38;;;9.17;100.00
29935;BME280;19905;53.370;-6.314;2022-09-24T01:08:15;101670.00;;;9.10;100.00
29935;BME280;19905;53.370;-6.314;2022-09-24T01:10:59;101675.59;;;9.04;100.00
29935;BME280;19905;53.370;-6.314;2022-09-24T01:16:38;101668.53;;;9.04;100.00
29935;BME280;19905;53.370;-6.314;2022-09-24T01:19:25;101669.66;;;9.00;100.00
29935;BME280;19905;53.370;-6.314;2022-09-24T01:22:05;101664.97;;;9.05;100.00
29935;BME280;19905;53.370;-6.314;2022-09-24T01:24:50;101664.88;;;9.07;100.00
29935;BME280;19905;53.370;-6.314;2022-09-24T01:27:35;101665.81;;;9.06;100.00
29935;BME280;19905;53.370;-6.314;2022-09-24T01:30:11;101672.72;;;9.08;100.00
29935;BME280;19905;53.370;-6.314;2022-09-24T01:32:43;101667.34;;;9.10;100.00
29935;BME280;19905;53.370;-6.314;2022-09-24T01:35:17;101666.00;;;9.03;100.00
29935;BME280;19905;53.370;-6.314;2022-09-24T01:37:51;101668.38;;;9.07;100.00
29935;BME280;19905;53.370;-6.314;2022-09-24T01:40:24;101661.13;;;9.11;100.00
29935;BME280;19905;53.370;-6.314;2022-09-24T01:42:56;101669.25;;;9.08;100.00
29935;BME280;19905;53.370;-6.314;2022-09-24T01:45:28;101678.59;;;9.13;100.00
29935;BME280;19905;53.370;-6.314;2022-09-24T01:47:58;101676.69;;;9.15;100.00
29935;BME280;19905;53.370;-6.314;2022-09-24T01:50:30;101676.19;;;9.25;100.00
29935;BME280;19905;53.370;-6.314;2022-09-24T01:53:04;101672.81;;;9.23;100.00
29935;BME280;19905;53.370;-6.314;2022-09-24T01:55:36;101671.97;;;9.22;100.00
29935;BME280;19905;53.370;-6.314;2022-09-24T01:58:08;101669.56;;;9.18;100.00
29935;BME280;19905;53.370;-6.314;2022-09-24T02:00:44;101672.03;;;9.21;100.00
29935;BME280;19905;53.370;-6.314;2022-09-24T02:03:17;101664.91;;;9.23;100.00
29935;BME280;19905;53.370;-6.314;2022-09-24T02:05:49;101667.63;;;9.21;100.00
29935;BME280;19905;53.370;-6.314;2022-09-24T02:08:21;101663.47;;;9.17;100.00
29935;BME280;19905;53.370;-6.314;2022-09-24T02:10:54;101673.56;;;9.25;100.00
29935;BME280;19905;53.370;-6.314;2022-09-24T02:13:25;101662.94;;;9.26;100.00
29935;BME280;19905;53.370;-6.314;2022-09-24T02:16:03;101664.66;;;9.27;100.00
29935;BME280;19905;53.370;-6.314;2022-09-24T02:18:36;101656.22;;;9.21;100.00
29935;BME280;19905;53.370;-6.314;2022-09-24T02:21:08;101660.63;;;9.20;100.00
29935;BME280;19905;53.370;-6.314;2022-09-24T02:23:43;101663.13;;;9.23;100.00
29935;BME280;19905;53.370;-6.314;2022-09-24T02:26:13;101668.13;;;9.28;100.00
29935;BME280;19905;53.370;-6.314;2022-09-24T02:28:42;101668.97;;;9.28;100.00
29935;BME280;19905;53.370;-6.314;2022-09-24T02:31:14;101671.03;;;9.23;100.00
29935;BME280;19905;53.370;-6.314;2022-09-24T02:33:49;101665.66;;;9.25;100.00
29935;BME280;19905;53.370;-6.314;2022-09-24T02:36:37;101671.72;;;9.27;100.00
29935;BME280;19905;53.370;-6.314;2022-09-24T02:39:06;101667.53;;;9.23;100.00
29935;BME280;19905;53.370;-6.314;2022-09-24T02:41:35;101663.97;;;9.24;100.00
29935;BME280;19905;53.370;-6.314;2022-09-24T02:44:04;101665.59;;;9.26;100.00
29935;BME280;19905;53.370;-6.314;2022-09-24T02:46:35;101663.88;;;9.25;100.00
29935;BME280;19905;53.370;-6.314;2022-09-24T02:49:05;101652.56;;;9.23;100.00
29935;BME280;19905;53.370;-6.314;2022-09-24T02:51:34;101654.34;;;9.23;100.00
29935;BME280;19905;53.370;-6.314;2022-09-24T02:54:03;101656.22;;;9.21;100.00
29935;BME280;19905;53.370;-6.314;2022-09-24T02:56:33;101665.75;;;9.23;100.00
29935;BME280;19905;53.370;-6.314;2022-09-24T02:59:02;101673.66;;;9.23;100.00
29935;BME280;19905;53.370;-6.314;2022-09-24T03:01:31;101666.75;;;9.21;100.00
29935;BME280;19905;53.370;-6.314;2022-09-24T03:04:01;101664.22;;;9.19;100.00
29935;BME280;19905;53.370;-6.314;2022-09-24T03:06:31;101670.53;;;9.16;100.00
29935;BME280;19905;53.370;-6.314;2022-09-24T03:09:00;101664.38;;;9.16;100.00
29935;BME280;19905;53.370;-6.314;2022-09-24T03:11:30;101667.78;;;9.18;100.00
29935;BME280;19905;53.370;-6.314;2022-09-24T03:13:59;101658.25;;;9.15;100.00
29935;BME280;19905;53.370;-6.314;2022-09-24T03:16:28;101666.41;;;9.11;100.00
29935;BME280;19905;53.370;-6.314;2022-09-24T03:18:57;101663.63;;;9.14;100.00
29935;BME280;19905;53.370;-6.314;2022-09-24T03:21:27;101656.47;;;9.16;100.00
29935;BME280;19905;53.370;-6.314;2022-09-24T03:23:56;101657.16;;;9.20;100.00
29935;BME280;19905;53.370;-6.314;2022-09-24T03:26:26;101669.66;;;9.16;100.00
29935;BME280;19905;53.370;-6.314;2022-09-24T03:28:54;101674.16;;;9.14;100.00
29935;BME280;19905;53.370;-6.314;2022-09-24T03:31:23;101675.09;;;9.13;100.00
29935;BME280;19905;53.370;-6.314;2022-09-24T03:33:50;101681.47;;;9.09;100.00
29935;BME280;19905;53.370;-6.314;2022-09-24T03:36:20;101672.72;;;9.08;100.00
29935;BME280;19905;53.370;-6.314;2022-09-24T03:38:54;101672.88;;;9.05;100.00
29935;BME280;19905;53.370;-6.314;2022-09-24T03:41:24;101677.41;;;9.03;100.00
29935;BME280;19905;53.370;-6.314;2022-09-24T03:43:53;101678.25;;;9.04;100.00
29935;BME280;19905;53.370;-6.314;2022-09-24T03:46:22;101674.81;;;9.02;100.00
29935;BME280;19905;53.370;-6.314;2022-09-24T03:48:56;101679.19;;;9.03;100.00
29935;BME280;19905;53.370;-6.314;2022-09-24T03:51:26;101676.81;;;8.98;100.00
29935;BME280;19905;53.370;-6.314;2022-09-24T03:53:56;101678.41;;;9.01;100.00
29935;BME280;19905;53.370;-6.314;2022-09-24T03:56:26;101687.25;;;9.00;100.00
29935;BME280;19905;53.370;-6.314;2022-09-24T03:58:54;101682.91;;;8.99;100.00
29935;BME280;19905;53.370;-6.314;2022-09-24T04:01:23;101688.09;;;9.00;100.00
29935;BME280;19905;53.370;-6.314;2022-09-24T04:03:52;101684.63;;;9.00;100.00
29935;BME280;19905;53.370;-6.314;2022-09-24T04:06:21;101689.03;;;8.99;100.00
29935;BME280;19905;53.370;-6.314;2022-09-24T04:08:52;101696.34;;;8.94;100.00
29935;BME280;19905;53.370;-6.314;2022-09-24T04:11:23;101689.53;;;8.90;100.00
29935;BME280;19905;53.370;-6.314;2022-09-24T04:13:52;101688.00;;;8.86;100.00
29935;BME280;19905;53.370;-6.314;2022-09-24T04:16:20;101697.22;;;8.77;100.00
29935;BME280;19905;53.370;-6.314;2022-09-24T04:18:49;101693.84;;;8.75;100.00
29935;BME280;19905;53.370;-6.314;2022-09-24T04:21:17;101704.63;;;8.71;100.00
29935;BME280;19905;53.370;-6.314;2022-09-24T04:23:46;101701.44;;;8.64;100.00
29935;BME280;19905;53.370;-6.314;2022-09-24T04:26:15;101704.31;;;8.59;100.00
29935;BME280;19905;53.370;-6.314;2022-09-24T04:28:45;101699.19;;;8.56;100.00
29935;BME280;19905;53.370;-6.314;2022-09-24T04:31:13;101703.63;;;8.56;100.00
29935;BME280;19905;53.370;-6.314;2022-09-24T04:33:42;101705.50;;;8.54;100.00
29935;BME280;19905;53.370;-6.314;2022-09-24T04:36:11;101705.72;;;8.49;100.00
29935;BME280;19905;53.370;-6.314;2022-09-24T04:38:40;101716.34;;;8.48;100.00
29935;BME280;19905;53.370;-6.314;2022-09-24T04:41:09;101702.41;;;8.46;100.00
29935;BME280;19905;53.370;-6.314;2022-09-24T04:43:38;101713.03;;;8.44;100.00
29935;BME280;19905;53.370;-6.314;2022-09-24T04:46:08;101703.66;;;8.38;100.00
29935;BME280;19905;53.370;-6.314;2022-09-24T04:48:37;101712.53;;;8.36;100.00
29935;BME280;19905;53.370;-6.314;2022-09-24T04:51:07;101712.53;;;8.36;100.00
29935;BME280;19905;53.370;-6.314;2022-09-24T04:53:36;101712.84;;;8.30;100.00
29935;BME280;19905;53.370;-6.314;2022-09-24T04:56:05;101711.34;;;8.24;100.00
29935;BME280;19905;53.370;-6.314;2022-09-24T04:58:38;101709.81;;;8.20;100.00
29935;BME280;19905;53.370;-6.314;2022-09-24T05:01:09;101716.00;;;8.19;100.00
29935;BME280;19905;53.370;-6.314;2022-09-24T05:03:40;101720.63;;;8.14;100.00
29935;BME280;19905;53.370;-6.314;2022-09-24T05:06:09;101720.63;;;8.14;100.00
29935;BME280;19905;53.370;-6.314;2022-09-24T05:08:37;101721.50;;;8.14;100.00
29935;BME280;19905;53.370;-6.314;2022-09-24T05:11:06;101715.59;;;8.09;100.00
29935;BME280;19905;53.370;-6.314;2022-09-24T05:13:35;101720.09;;;8.07;100.00
29935;BME280;19905;53.370;-6.314;2022-09-24T05:16:03;101724.53;;;8.07;100.00
29935;BME280;19905;53.370;-6.314;2022-09-24T05:18:34;101718.66;;;8.02;100.00
29935;BME280;19905;53.370;-6.314;2022-09-24T05:21:03;101721.41;;;7.99;100.00
29935;BME280;19905;53.370;-6.314;2022-09-24T05:23:32;101714.44;;;7.98;100.00
29935;BME280;19905;53.370;-6.314;2022-09-24T05:26:01;101715.22;;;8.00;100.00
29935;BME280;19905;53.370;-6.314;2022-09-24T05:28:47;101724.97;;;7.98;100.00
29935;BME280;19905;53.370;-6.314;2022-09-24T05:31:16;101723.09;;;8.00;100.00
29935;BME280;19905;53.370;-6.314;2022-09-24T05:33:46;101730.69;;;8.06;100.00
29935;BME280;19905;53.370;-6.314;2022-09-24T05:36:15;101740.31;;;8.07;100.00
29935;BME280;19905;53.370;-6.314;2022-09-24T05:38:45;101738.34;;;8.10;100.00
29935;BME280;19905;53.370;-6.314;2022-09-24T05:41:13;101732.31;;;8.08;100.00
29935;BME280;19905;53.370;-6.314;2022-09-24T05:43:42;101744.50;;;8.11;100.00
29935;BME280;19905;53.370;-6.314;2022-09-24T05:46:10;101746.03;;;8.15;100.00
29935;BME280;19905;53.370;-6.314;2022-09-24T05:48:39;101749.34;;;8.19;100.00
29935;BME280;19905;53.370;-6.314;2022-09-24T05:51:09;101750.81;;;8.24;100.00
29935;BME280;19905;53.370;-6.314;2022-09-24T05:53:38;101759.53;;;8.26;100.00
29935;BME280;19905;53.370;-6.314;2022-09-24T05:56:06;101770.53;;;8.34;100.00
29935;BME280;19905;53.370;-6.314;2022-09-24T05:58:36;101766.91;;;8.37;100.00
29935;BME280;19905;53.370;-6.314;2022-09-24T06:01:05;101779.13;;;8.38;100.00
29935;BME280;19905;53.370;-6.314;2022-09-24T06:03:33;101777.47;;;8.35;100.00
29935;BME280;19905;53.370;-6.314;2022-09-24T06:06:02;101774.78;;;8.37;100.00
29935;BME280;19905;53.370;-6.314;2022-09-24T06:08:32;101780.00;;;8.38;100.00
29935;BME280;19905;53.370;-6.314;2022-09-24T06:11:03;101784.25;;;8.41;100.00
29935;BME280;19905;53.370;-6.314;2022-09-24T06:13:32;101786.75;;;8.44;100.00
29935;BME280;19905;53.370;-6.314;2022-09-24T06:16:02;101789.38;;;8.44;100.00
29935;BME280;19905;53.370;-6.314;2022-09-24T06:18:32;101797.09;;;8.47;100.00
29935;BME280;19905;53.370;-6.314;2022-09-24T06:21:01;101795.41;;;8.46;100.00
29935;BME280;19905;53.370;-6.314;2022-09-24T06:23:32;101805.09;;;8.46;100.00
29935;BME280;19905;53.370;-6.314;2022-09-24T06:26:01;101793.56;;;8.48;100.00
29935;BME280;19905;53.370;-6.314;2022-09-24T06:28:30;101793.56;;;8.48;100.00
29935;BME280;19905;53.370;-6.314;2022-09-24T06:31:00;101799.34;;;8.55;100.00
29935;BME280;19905;53.370;-6.314;2022-09-24T06:33:30;101801.13;;;8.54;100.00
29935;BME280;19905;53.370;-6.314;2022-09-24T06:36:02;101808.72;;;8.60;100.00
29935;BME280;19905;53.370;-6.314;2022-09-24T06:38:32;101798.88;;;8.64;100.00
29935;BME280;19905;53.370;-6.314;2022-09-24T06:41:03;101797.91;;;8.67;100.00
29935;BME280;19905;53.370;-6.314;2022-09-24T06:43:33;101807.34;;;8.71;100.00
29935;BME280;19905;53.370;-6.314;2022-09-24T06:46:03;101811.44;;;8.76;100.00
29935;BME280;19905;53.370;-6.314;2022-09-24T06:48:32;101807.72;;;8.80;100.00
29935;BME280;19905;53.370;-6.314;2022-09-24T06:51:02;101817.09;;;8.86;100.00
29935;BME280;19905;53.370;-6.314;2022-09-24T06:53:33;101810.88;;;8.87;100.00
29935;BME280;19905;53.370;-6.314;2022-09-24T06:56:03;101806.69;;;8.83;100.00
29935;BME280;19905;53.370;-6.314;2022-09-24T06:58:32;101812.38;;;8.75;100.00
29935;BME280;19905;53.370;-6.314;2022-09-24T07:01:02;101811.59;;;8.73;100.00
29935;BME280;19905;53.370;-6.314;2022-09-24T07:03:32;101824.00;;;8.71;100.00
29935;BME280;19905;53.370;-6.314;2022-09-24T07:06:03;101829.19;;;8.73;100.00
29935;BME280;19905;53.370;-6.314;2022-09-24T07:08:34;101828.00;;;8.78;100.00
29935;BME280;19905;53.370;-6.314;2022-09-24T07:11:02;101833.00;;;8.84;100.00
29935;BME280;19905;53.370;-6.314;2022-09-24T07:13:31;101834.22;;;8.95;100.00
29935;BME280;19905;53.370;-6.314;2022-09-24T07:16:00;101831.81;;;9.07;100.00
29935;BME280;19905;53.370;-6.314;2022-09-24T07:18:28;101825.16;;;9.16;100.00
29935;BME280;19905;53.370;-6.314;2022-09-24T07:20:58;101829.88;;;9.27;100.00
29935;BME280;19905;53.370;-6.314;2022-09-24T07:23:28;101833.97;;;9.32;100.00
29935;BME280;19905;53.370;-6.314;2022-09-24T07:25:58;101831.19;;;9.35;100.00
29935;BME280;19905;53.370;-6.314;2022-09-24T07:28:27;101825.91;;;9.35;100.00
29935;BME280;19905;53.370;-6.314;2022-09-24T07:30:57;101826.53;;;9.40;100.00
29935;BME280;19905;53.370;-6.314;2022-09-24T07:33:26;101828.91;;;9.45;100.00
29935;BME280;19905;53.370;-6.314;2022-09-24T07:35:55;101828.72;;;9.48;100.00
29935;BME280;19905;53.370;-6.314;2022-09-24T07:38:24;101824.84;;;9.55;100.00
29935;BME280;19905;53.370;-6.314;2022-09-24T07:40:57;101828.16;;;9.59;100.00
29935;BME280;19905;53.370;-6.314;2022-09-24T07:43:27;101830.00;;;9.57;100.00
29935;BME280;19905;53.370;-6.314;2022-09-24T07:45:58;101828.59;;;9.67;100.00
29935;BME280;19905;53.370;-6.314;2022-09-24T07:48:26;101825.97;;;9.67;100.00
29935;BME280;19905;53.370;-6.314;2022-09-24T07:50:55;101832.59;;;9.74;100.00
29935;BME280;19905;53.370;-6.314;2022-09-24T07:53:23;101832.25;;;9.80;100.00
29935;BME280;19905;53.370;-6.314;2022-09-24T07:55:51;101825.59;;;9.89;100.00
29935;BME280;19905;53.370;-6.314;2022-09-24T07:58:24;101829.78;;;9.93;100.00
29935;BME280;19905;53.370;-6.314;2022-09-24T08:00:56;101829.97;;;10.06;100.00
29935;BME280;19905;53.370;-6.314;2022-09-24T08:03:25;101827.22;;;10.07;100.00
29935;BME280;19905;53.370;-6.314;2022-09-24T08:05:54;101821.78;;;10.10;100.00
29935;BME280;19905;53.370;-6.314;2022-09-24T08:08:25;101818.03;;;10.14;100.00
29935;BME280;19905;53.370;-6.314;2022-09-24T08:10:55;101820.84;;;10.27;100.00
29935;BME280;19905;53.370;-6.314;2022-09-24T08:13:25;101825.34;;;10.41;100.00
29935;BME280;19905;53.370;-6.314;2022-09-24T08:15:58;101829.81;;;10.55;100.00
29935;BME280;19905;53.370;-6.314;2022-09-24T08:18:28;101832.19;;;10.59;100.00
29935;BME280;19905;53.370;-6.314;2022-09-24T08:20:58;101819.44;;;10.52;100.00
29935;BME280;19905;53.370;-6.314;2022-09-24T08:23:33;101823.97;;;10.50;100.00
29935;BME280;19905;53.370;-6.314;2022-09-24T08:26:03;101825.66;;;10.51;100.00
29935;BME280;19905;53.370;-6.314;2022-09-24T08:28:34;101834.47;;;10.65;100.00
29935;BME280;19905;53.370;-6.314;2022-09-24T08:31:04;101835.53;;;10.63;100.00
29935;BME280;19905;53.370;-6.314;2022-09-24T08:33:36;101837.28;;;10.62;100.00
29935;BME280;19905;53.370;-6.314;2022-09-24T08:36:08;101843.06;;;10.69;100.00
29935;BME280;19905;53.370;-6.314;2022-09-24T08:38:38;101833.09;;;10.74;100.00
29935;BME280;19905;53.370;-6.314;2022-09-24T08:41:22;101842.38;;;10.81;100.00
29935;BME280;19905;53.370;-6.314;2022-09-24T08:44:01;101848.78;;;10.77;100.00
29935;BME280;19905;53.370;-6.314;2022-09-24T08:46:34;101848.41;;;10.83;100.00
29935;BME280;19905;53.370;-6.314;2022-09-24T08:49:25;101848.69;;;10.93;100.00
29935;BME280;19905;53.370;-6.314;2022-09-24T08:52:00;101840.28;;;10.86;100.00
29935;BME280;19905;53.370;-6.314;2022-09-24T08:54:33;101843.41;;;10.93;100.00
29935;BME280;19905;53.370;-6.314;2022-09-24T08:57:11;101855.22;;;11.02;100.00
29935;BME280;19905;53.370;-6.314;2022-09-24T08:59:48;101857.78;;;11.17;100.00
29935;BME280;19905;53.370;-6.314;2022-09-24T09:02:32;101855.75;;;11.23;100.00
29935;BME280;19905;53.370;-6.314;2022-09-24T09:05:14;101855.75;;;11.37;100.00
29935;BME280;19905;53.370;-6.314;2022-09-24T09:07:57;101850.34;;;11.38;100.00
29935;BME280;19905;53.370;-6.314;2022-09-24T09:10:32;101845.53;;;11.31;100.00
29935;BME280;19905;53.370;-6.314;2022-09-24T09:13:08;101860.81;;;11.26;100.00
29935;BME280;19905;53.370;-6.314;2022-09-24T09:15:45;101855.34;;;11.43;100.00
29935;BME280;19905;53.370;-6.314;2022-09-24T09:18:19;101855.56;;;11.83;100.00
29935;BME280;19905;53.370;-6.314;2022-09-24T09:20:50;101836.34;;;11.93;100.00
29935;BME280;19905;53.370;-6.314;2022-09-24T09:23:20;101847.59;;;12.24;100.00
29935;BME280;19905;53.370;-6.314;2022-09-24T09:25:53;101842.00;;;12.29;100.00
29935;BME280;19905;53.370;-6.314;2022-09-24T09:28:25;101841.75;;;12.59;100.00
29935;BME280;19905;53.370;-6.314;2022-09-24T09:31:06;101835.44;;;12.74;100.00
29935;BME280;19905;53.370;-6.314;2022-09-24T09:33:48;101840.22;;;12.94;100.00
29935;BME280;19905;53.370;-6.314;2022-09-24T09:36:46;101836.97;;;13.16;100.00
29935;BME280;19905;53.370;-6.314;2022-09-24T09:39:31;101827.94;;;13.44;100.00
29935;BME280;19905;53.370;-6.314;2022-09-24T09:42:12;101816.34;;;14.19;100.00
29935;BME280;19905;53.370;-6.314;2022-09-24T09:44:45;101802.38;;;14.52;100.00
29935;BME280;19905;53.370;-6.314;2022-09-24T09:47:22;101805.28;;;14.60;100.00
29935;BME280;19905;53.370;-6.314;2022-09-24T09:49:55;101801.72;;;14.84;100.00
29935;BME280;19905;53.370;-6.314;2022-09-24T09:52:27;101803.09;;;15.00;100.00
29935;BME280;19905;53.370;-6.314;2022-09-24T09:54:57;101806.47;;;14.91;100.00
29935;BME280;19905;53.370;-6.314;2022-09-24T09:57:26;101788.13;;;14.53;100.00
29935;BME280;19905;53.370;-6.314;2022-09-24T09:59:59;101805.00;;;14.17;100.00
29935;BME280;19905;53.370;-6.314;2022-09-24T10:02:39;101809.69;;;13.89;100.00
29935;BME280;19905;53.370;-6.314;2022-09-24T10:05:17;101809.75;;;13.64;100.00
29935;BME280;19905;53.370;-6.314;2022-09-24T10:08:19;101816.16;;;13.48;100.00
29935;BME280;19905;53.370;-6.314;2022-09-24T10:10:53;101814.28;;;13.38;100.00
29935;BME280;19905;53.370;-6.314;2022-09-24T10:13:34;101816.81;;;13.39;100.00
29935;BME280;19905;53.370;-6.314;2022-09-24T10:16:14;101823.91;;;13.52;100.00
29935;BME280;19905;53.370;-6.314;2022-09-24T10:18:59;101819.34;;;13.28;100.00
29935;BME280;19905;53.370;-6.314;2022-09-24T10:21:42;101826.78;;;13.23;100.00
29935;BME280;19905;53.370;-6.314;2022-09-24T10:24:22;101816.28;;;13.34;100.00
29935;BME280;19905;53.370;-6.314;2022-09-24T10:26:56;101820.81;;;13.45;100.00
29935;BME280;19905;53.370;-6.314;2022-09-24T10:29:31;101827.41;;;13.52;100.00
29935;BME280;19905;53.370;-6.314;2022-09-24T10:32:27;101828.13;;;13.54;100.00
29935;BME280;19905;53.370;-6.314;2022-09-24T10:35:00;101831.56;;;13.43;100.00
29935;BME280;19905;53.370;-6.314;2022-09-24T10:37:32;101839.91;;;13.50;100.00
29935;BME280;19905;53.370;-6.314;2022-09-24T10:40:11;101839.72;;;13.40;100.00
29935;BME280;19905;53.370;-6.314;2022-09-24T10:42:54;101849.38;;;13.41;100.00
29935;BME280;19905;53.370;-6.314;2022-09-24T10:45:44;101843.19;;;13.66;100.00
29935;BME280;19905;53.370;-6.314;2022-09-24T10:48:25;101833.91;;;13.85;100.00
29935;BME280;19905;53.370;-6.314;2022-09-24T10:51:09;101844.09;;;14.15;100.00
29935;BME280;19905;53.370;-6.314;2022-09-24T10:53:58;101836.72;;;14.55;100.00
29935;BME280;19905;53.370;-6.314;2022-09-24T10:56:33;101837.22;;;14.36;100.00
29935;BME280;19905;53.370;-6.314;2022-09-24T10:59:39;101832.66;;;13.78;100.00
29935;BME280;19905;53.370;-6.314;2022-09-24T11:02:52;101825.56;;;14.26;100.00
29935;BME280;19905;53.370;-6.314;2022-09-24T11:05:35;101828.38;;;14.60;100.00
29935;BME280;19905;53.370;-6.314;2022-09-24T11:08:15;101824.72;;;14.85;100.00
29935;BME280;19905;53.370;-6.314;2022-09-24T11:11:01;101828.84;;;15.00;100.00
29935;BME280;19905;53.370;-6.314;2022-09-24T11:13:40;101822.34;;;15.27;100.00
29935;BME280;19905;53.370;-6.314;2022-09-24T11:16:39;101820.41;;;15.29;100.00
29935;BME280;19905;53.370;-6.314;2022-09-24T11:19:30;101809.88;;;15.61;100.00
29935;BME280;19905;53.370;-6.314;2022-09-24T11:22:10;101812.53;;;15.61;100.00
29935;BME280;19905;53.370;-6.314;2022-09-24T11:25:00;101807.81;;;15.75;100.00
29935;BME280;19905;53.370;-6.314;2022-09-24T11:28:04;101804.66;;;15.82;100.00
29935;BME280;19905;53.370;-6.314;2022-09-24T11:30:50;101802.00;;;15.70;100.00
29935;BME280;19905;53.370;-6.314;2022-09-24T11:36:44;101808.59;;;15.98;100.00
29935;BME280;19905;53.370;-6.314;2022-09-24T11:39:34;101801.03;;;15.83;100.00
29935;BME280;19905;53.370;-6.314;2022-09-24T11:42:21;101812.53;;;15.94;100.00
29935;BME280;19905;53.370;-6.314;2022-09-24T11:45:11;101810.38;;;15.55;100.00
29935;BME280;19905;53.370;-6.314;2022-09-24T11:48:02;101810.34;;;15.88;100.00
29935;BME280;19905;53.370;-6.314;2022-09-24T11:50:38;101821.09;;;14.97;100.00
29935;BME280;19905;53.370;-6.314;2022-09-24T11:53:25;101828.41;;;14.47;100.00
29935;BME280;19905;53.370;-6.314;2022-09-24T11:56:10;101823.25;;;14.81;100.00
29935;BME280;19905;53.370;-6.314;2022-09-24T11:58:47;101818.59;;;15.85;100.00
29935;BME280;19905;53.370;-6.314;2022-09-24T12:01:26;101824.50;;;16.32;100.00
29935;BME280;19905;53.370;-6.314;2022-09-24T12:04:01;101829.75;;;15.68;100.00
29935;BME280;19905;53.370;-6.314;2022-09-24T12:06:38;101831.69;;;14.74;100.00
29935;BME280;19905;53.370;-6.314;2022-09-24T12:09:22;101829.69;;;14.54;100.00
29935;BME280;19905;53.370;-6.314;2022-09-24T12:12:25;101827.59;;;14.22;100.00
29935;BME280;19905;53.370;-6.314;2022-09-24T12:15:24;101840.22;;;14.08;100.00
29935;BME280;19905;53.370;-6.314;2022-09-24T12:20:38;101822.19;;;15.62;100.00
29935;BME280;19905;53.370;-6.314;2022-09-24T12:23:14;101810.41;;;16.09;100.00
29935;BME280;19905;53.370;-6.314;2022-09-24T12:25:47;101815.59;;;16.22;100.00
29935;BME280;19905;53.370;-6.314;2022-09-24T12:28:19;101811.53;;;15.84;100.00
29935;BME280;19905;53.370;-6.314;2022-09-24T12:31:14;101820.25;;;14.96;100.00
29935;BME280;19905;53.370;-6.314;2022-09-24T12:34:04;101823.63;;;14.52;100.00
29935;BME280;19905;53.370;-6.314;2022-09-24T12:36:46;101816.06;;;15.28;100.00
29935;BME280;19905;53.370;-6.314;2022-09-24T12:39:25;101811.06;;;15.90;100.00
29935;BME280;19905;53.370;-6.314;2022-09-24T12:41:59;101795.94;;;16.23;100.00
29935;BME280;19905;53.370;-6.314;2022-09-24T12:44:36;101797.16;;;16.51;100.00
29935;BME280;19905;53.370;-6.314;2022-09-24T12:47:17;101804.84;;;16.33;100.00
29935;BME280;19905;53.370;-6.314;2022-09-24T12:49:57;101802.09;;;16.56;100.00
29935;BME280;19905;53.370;-6.314;2022-09-24T12:52:40;101801.75;;;16.17;100.00
29935;BME280;19905;53.370;-6.314;2022-09-24T12:55:18;101800.50;;;16.00;100.00
29935;BME280;19905;53.370;-6.314;2022-09-24T12:58:00;101810.50;;;15.64;100.00
29935;BME280;19905;53.370;-6.314;2022-09-24T13:00:38;101811.78;;;15.03;100.00
29935;BME280;19905;53.370;-6.314;2022-09-24T13:03:30;101804.19;;;15.20;100.00
29935;BME280;19905;53.370;-6.314;2022-09-24T13:06:29;101806.50;;;15.59;100.00
29935;BME280;19905;53.370;-6.314;2022-09-24T13:09:01;101810.06;;;16.02;100.00
29935;BME280;19905;53.370;-6.314;2022-09-24T13:11:34;101804.78;;;15.58;100.00
29935;BME280;19905;53.370;-6.314;2022-09-24T13:14:17;101804.06;;;15.11;100.00
29935;BME280;19905;53.370;-6.314;2022-09-24T13:16:54;101803.59;;;15.28;100.00
29935;BME280;19905;53.370;-6.314;2022-09-24T13:19:38;101796.25;;;16.09;100.00